createdAt,value
2022-08-23T00:00:42.623Z,25.90
2022-08-23T00:03:11.174Z,25.90
2022-08-23T00:05:39.695Z,25.90
2022-08-23T00:08:08.362Z,26.00
2022-08-23T00:10:36.862Z,26.00
2022-08-23T00:13:05.405Z,26.00
2022-08-23T00:15:34.869Z,26.00
2022-08-23T00:18:03.425Z,26.10
2022-08-23T00:20:32.098Z,26.10
2022-08-23T00:23:00.655Z,26.10
2022-08-23T00:25:29.255Z,26.20
2022-08-23T00:27:57.784Z,26.20
2022-08-23T00:30:26.839Z,26.20
2022-08-23T00:32:57.881Z,26.30
2022-08-23T00:35:27.524Z,26.20
2022-08-23T00:38:10.594Z,26.30
2022-08-23T00:40:47.659Z,26.30
2022-08-23T00:43:35.735Z,26.40
2022-08-23T00:46:32.192Z,26.50
2022-08-23T00:49:02.695Z,26.60
2022-08-23T00:51:48.760Z,26.60
2022-08-23T00:54:22.600Z,26.60
2022-08-23T00:56:51.397Z,26.70
2022-08-23T00:59:23.223Z,26.80
2022-08-23T01:01:52.381Z,26.80
2022-08-23T01:04:21.339Z,26.90
2022-08-23T01:06:53.434Z,26.90
2022-08-23T01:09:22.713Z,27.00
2022-08-23T01:11:56.034Z,27.10
2022-08-23T01:14:33.401Z,27.10
2022-08-23T01:17:08.452Z,27.20
2022-08-23T01:19:48.845Z,27.20
2022-08-23T01:22:26.451Z,27.30
2022-08-23T01:25:07.111Z,27.40
2022-08-23T01:27:37.118Z,27.40
2022-08-23T01:30:08.208Z,27.50
2022-08-23T01:32:39.118Z,27.50
2022-08-23T01:35:07.841Z,27.60
2022-08-23T01:37:36.533Z,27.60
2022-08-23T01:40:06.107Z,27.70
2022-08-23T01:42:34.690Z,27.70
2022-08-23T01:45:03.215Z,27.80
2022-08-23T01:47:33.030Z,27.90
2022-08-23T01:50:01.709Z,27.90
2022-08-23T01:52:30.217Z,28.00
2022-08-23T01:54:58.802Z,28.10
2022-08-23T01:57:27.347Z,28.10
2022-08-23T01:59:56.303Z,28.10
2022-08-23T02:02:24.880Z,28.20
2022-08-23T02:04:54.195Z,28.20
2022-08-23T02:07:26.904Z,28.30
2022-08-23T02:09:55.476Z,28.30
2022-08-23T02:12:24.968Z,28.40
2022-08-23T02:14:53.499Z,28.40
2022-08-23T02:17:23.294Z,28.50
2022-08-23T02:19:51.951Z,28.50
2022-08-23T02:22:20.614Z,28.60
2022-08-23T02:24:49.603Z,28.60
2022-08-23T02:27:18.398Z,28.60
2022-08-23T02:29:48.101Z,28.70
2022-08-23T02:32:19.809Z,28.80
2022-08-23T02:34:57.800Z,28.80
2022-08-23T02:37:34.349Z,28.90
2022-08-23T02:40:03.100Z,28.90
2022-08-23T02:42:31.686Z,29.00
2022-08-23T02:45:00.412Z,29.00
2022-08-23T02:47:28.963Z,29.10
2022-08-23T02:49:57.518Z,29.10
2022-08-23T02:52:26.019Z,29.10
2022-08-23T02:54:58.285Z,29.20
2022-08-23T02:57:27.404Z,29.20
2022-08-23T02:59:59.276Z,29.30
2022-08-23T03:02:27.992Z,29.20
2022-08-23T03:04:56.575Z,29.30
2022-08-23T03:07:25.188Z,29.20
2022-08-23T03:09:54.200Z,29.30
2022-08-23T03:12:22.683Z,29.30
2022-08-23T03:14:53.290Z,29.40
2022-08-23T03:17:21.808Z,29.40
2022-08-23T03:19:50.760Z,29.50
2022-08-23T03:22:19.660Z,29.50
2022-08-23T03:24:48.157Z,29.50
2022-08-23T03:27:16.930Z,29.50
2022-08-23T03:29:45.675Z,29.50
2022-08-23T03:32:15.571Z,29.50
2022-08-23T03:34:44.174Z,29.50
2022-08-23T03:37:12.698Z,29.50
2022-08-23T03:39:41.278Z,29.60
2022-08-23T03:42:10.993Z,29.60
2022-08-23T03:44:41.418Z,29.70
2022-08-23T03:47:09.976Z,29.70
2022-08-23T03:49:38.822Z,29.70
2022-08-23T03:52:08.185Z,29.80
2022-08-23T03:54:37.025Z,29.80
2022-08-23T03:57:07.171Z,29.80
2022-08-23T03:59:36.354Z,29.90
2022-08-23T04:02:04.891Z,29.90
2022-08-23T04:04:35.851Z,29.90
2022-08-23T04:07:04.428Z,30.00
2022-08-23T04:09:33.050Z,30.00
2022-08-23T04:12:01.569Z,30.00
2022-08-23T04:14:30.124Z,30.00
2022-08-23T04:16:58.645Z,30.00
2022-08-23T04:19:27.170Z,30.00
2022-08-23T04:21:58.639Z,30.00
2022-08-23T04:24:27.360Z,30.10
2022-08-23T04:26:56.622Z,30.10
2022-08-23T04:29:34.463Z,30.20
2022-08-23T04:32:05.258Z,30.20
2022-08-23T04:34:37.422Z,30.20
2022-08-23T04:37:09.458Z,30.30
2022-08-23T04:40:01.450Z,30.40
2022-08-23T04:42:31.093Z,30.50
2022-08-23T04:44:59.645Z,30.50
2022-08-23T04:47:28.221Z,30.40
2022-08-23T04:49:56.750Z,30.30
2022-08-23T04:52:25.300Z,30.20
2022-08-23T04:54:53.824Z,30.10
2022-08-23T04:57:22.726Z,30.10
2022-08-23T04:59:51.259Z,30.10
2022-08-23T05:02:21.685Z,30.20
2022-08-23T05:04:50.166Z,30.20
2022-08-23T05:07:18.814Z,30.20
2022-08-23T05:09:47.302Z,30.20
2022-08-23T05:12:15.814Z,30.20
2022-08-23T05:14:44.349Z,30.20
2022-08-23T05:17:16.543Z,30.10
2022-08-23T05:19:47.024Z,30.10
2022-08-23T05:22:15.839Z,30.20
2022-08-23T05:24:44.374Z,30.20
2022-08-23T05:27:13.777Z,30.20
2022-08-23T05:29:42.397Z,30.20
2022-08-23T05:32:11.843Z,30.20
2022-08-23T05:34:40.678Z,30.10
2022-08-23T05:37:09.184Z,30.10
2022-08-23T05:39:37.944Z,30.20
2022-08-23T05:42:09.110Z,30.20
2022-08-23T05:44:38.542Z,30.20
2022-08-23T05:47:10.692Z,30.30
2022-08-23T05:49:41.499Z,30.40
2022-08-23T05:52:11.236Z,30.40
2022-08-23T05:54:39.782Z,30.50
2022-08-23T05:57:08.403Z,30.50
2022-08-23T05:59:36.938Z,30.50
2022-08-23T06:02:05.631Z,30.60
2022-08-23T06:04:34.349Z,30.70
2022-08-23T06:07:03.003Z,30.70
2022-08-23T06:09:31.529Z,30.70
2022-08-23T06:12:00.533Z,30.70
2022-08-23T06:14:29.784Z,30.70
2022-08-23T06:16:58.585Z,30.60
2022-08-23T06:19:27.282Z,30.50
2022-08-23T06:21:56.707Z,30.50
2022-08-23T06:24:25.272Z,30.50
2022-08-23T06:26:53.816Z,30.50
2022-08-23T06:29:22.816Z,30.50
2022-08-23T06:31:52.590Z,30.60
2022-08-23T06:34:23.356Z,30.60
2022-08-23T06:36:59.406Z,30.60
2022-08-23T06:39:28.744Z,30.60
2022-08-23T06:42:01.906Z,30.60
2022-08-23T06:44:30.987Z,30.60
2022-08-23T06:46:59.675Z,30.60
2022-08-23T06:49:28.955Z,30.50
2022-08-23T06:51:58.868Z,30.50
2022-08-23T06:54:28.215Z,30.50
2022-08-23T06:56:58.459Z,30.40
2022-08-23T06:59:27.041Z,30.40
2022-08-23T07:01:57.823Z,30.30
2022-08-23T07:04:31.237Z,30.40
2022-08-23T07:07:00.096Z,30.30
2022-08-23T07:09:28.876Z,30.30
2022-08-23T07:11:57.543Z,30.20
2022-08-23T07:14:26.381Z,30.20
2022-08-23T07:16:56.289Z,30.20
2022-08-23T07:19:29.158Z,30.20
2022-08-23T07:21:59.458Z,30.10
2022-08-23T07:24:32.331Z,30.10
2022-08-23T07:27:05.228Z,30.10
2022-08-23T07:29:34.280Z,30.00
2022-08-23T07:32:02.923Z,30.00
2022-08-23T07:34:31.487Z,30.00
2022-08-23T07:37:00.130Z,30.00
2022-08-23T07:39:29.091Z,30.00
2022-08-23T07:41:59.590Z,29.90
2022-08-23T07:44:30.196Z,29.90
2022-08-23T07:46:59.707Z,29.90
2022-08-23T07:49:29.593Z,29.80
2022-08-23T07:51:59.917Z,29.90
2022-08-23T07:54:29.562Z,29.90
2022-08-23T07:56:58.112Z,29.90
2022-08-23T07:59:27.989Z,30.00
2022-08-23T08:02:00.014Z,30.10
2022-08-23T08:04:28.705Z,30.10
2022-08-23T08:07:17.824Z,30.20
2022-08-23T08:09:46.205Z,30.20
2022-08-23T08:12:14.940Z,30.30
2022-08-23T08:14:44.227Z,30.30
2022-08-23T08:17:13.051Z,30.30
2022-08-23T08:19:42.746Z,30.40
2022-08-23T08:22:14.410Z,30.40
2022-08-23T08:24:43.037Z,30.30
2022-08-23T08:27:11.704Z,30.40
2022-08-23T08:29:40.250Z,30.40
2022-08-23T08:32:14.000Z,30.40
2022-08-23T08:34:43.094Z,30.50
2022-08-23T08:37:11.896Z,30.50
2022-08-23T08:39:46.521Z,30.50
2022-08-23T08:42:26.459Z,30.50
2022-08-23T08:44:54.960Z,30.40
2022-08-23T08:47:37.948Z,30.40
2022-08-23T08:50:10.052Z,30.40
2022-08-23T08:52:38.541Z,30.40
2022-08-23T08:55:15.428Z,30.40
2022-08-23T08:57:46.828Z,30.40
2022-08-23T09:00:21.102Z,30.40
2022-08-23T09:02:50.417Z,30.40
2022-08-23T09:05:22.627Z,30.40
2022-08-23T09:07:57.537Z,30.40
2022-08-23T09:10:42.637Z,30.40
2022-08-23T09:13:23.079Z,30.30
2022-08-23T09:16:14.210Z,30.40
2022-08-23T09:18:42.849Z,30.40
2022-08-23T09:21:11.581Z,30.40
2022-08-23T09:23:42.305Z,30.40
2022-08-23T09:26:27.568Z,30.40
2022-08-23T09:29:00.982Z,30.40
2022-08-23T09:31:46.450Z,30.40
2022-08-23T09:34:20.887Z,30.40
2022-08-23T09:36:52.082Z,30.50
2022-08-23T09:39:30.737Z,30.40
2022-08-23T09:42:00.169Z,30.40
2022-08-23T09:44:37.590Z,30.40
2022-08-23T09:47:09.020Z,30.40
2022-08-23T09:49:37.559Z,30.40
2022-08-23T09:52:24.172Z,30.40
2022-08-23T09:55:08.828Z,30.40
2022-08-23T09:57:37.372Z,30.40
2022-08-23T10:00:18.710Z,30.40
2022-08-23T10:02:47.289Z,30.50
2022-08-23T10:05:21.536Z,30.50
2022-08-23T10:07:57.876Z,30.40
2022-08-23T10:10:29.385Z,30.40
2022-08-23T10:12:58.789Z,30.40
2022-08-23T10:15:37.228Z,30.40
2022-08-23T10:18:18.825Z,30.50
2022-08-23T10:20:54.235Z,30.50
2022-08-23T10:23:36.586Z,30.50
2022-08-23T10:26:05.165Z,30.40
2022-08-23T10:28:57.674Z,30.40
2022-08-23T10:31:36.145Z,30.40
2022-08-23T10:34:14.130Z,30.30
2022-08-23T10:36:51.021Z,30.30
2022-08-23T10:39:23.493Z,30.30
2022-08-23T10:42:07.638Z,30.20
2022-08-23T10:44:56.910Z,30.20
2022-08-23T10:47:34.599Z,30.20
2022-08-23T10:50:06.242Z,30.10
2022-08-23T10:52:37.745Z,30.10
2022-08-23T10:55:18.547Z,30.10
2022-08-23T10:57:48.665Z,30.00
2022-08-23T11:00:22.713Z,30.00
2022-08-23T11:02:57.238Z,30.00
2022-08-23T11:05:31.072Z,30.00
2022-08-23T11:08:02.880Z,29.90
2022-08-23T11:10:31.628Z,29.90
2022-08-23T11:13:00.111Z,29.90
2022-08-23T11:15:28.644Z,29.90
2022-08-23T11:17:59.341Z,29.90
2022-08-23T11:20:46.150Z,29.90
2022-08-23T11:23:15.572Z,29.90
2022-08-23T11:25:45.164Z,29.90
2022-08-23T11:28:30.560Z,29.90
2022-08-23T11:30:59.181Z,29.80
2022-08-23T11:33:32.488Z,29.80
2022-08-23T11:36:10.147Z,29.70
2022-08-23T11:38:50.989Z,29.70
2022-08-23T11:41:19.659Z,29.60
2022-08-23T11:43:49.632Z,29.60
2022-08-23T11:46:27.758Z,29.60
2022-08-23T11:48:59.057Z,29.60
2022-08-23T11:51:28.507Z,29.60
2022-08-23T11:54:12.605Z,29.50
2022-08-23T11:56:46.299Z,29.50
2022-08-23T11:59:41.603Z,29.50
2022-08-23T12:02:33.744Z,29.50
2022-08-23T12:05:06.713Z,29.40
2022-08-23T12:07:46.705Z,29.40
2022-08-23T12:10:17.146Z,29.40
2022-08-23T12:12:47.377Z,29.40
2022-08-23T12:15:18.457Z,29.40
2022-08-23T12:17:47.616Z,29.40
2022-08-23T12:20:24.828Z,29.30
2022-08-23T12:22:57.956Z,29.30
2022-08-23T12:25:26.711Z,29.30
2022-08-23T12:28:01.057Z,29.30
2022-08-23T12:30:39.808Z,29.30
2022-08-23T12:33:19.983Z,29.20
2022-08-23T12:36:03.464Z,29.20
2022-08-23T12:38:51.830Z,29.20
2022-08-23T12:41:25.261Z,29.20
2022-08-23T12:44:03.243Z,29.20
2022-08-23T12:46:31.904Z,29.20
2022-08-23T12:49:00.554Z,29.20
2022-08-23T12:51:29.234Z,29.20
2022-08-23T12:53:57.829Z,29.10
2022-08-23T12:56:32.009Z,29.10
2022-08-23T12:59:08.047Z,29.10
2022-08-23T13:01:38.455Z,29.00
2022-08-23T13:04:13.480Z,29.00
2022-08-23T13:06:45.225Z,29.00
2022-08-23T13:09:19.541Z,28.90
2022-08-23T13:11:48.584Z,28.90
2022-08-23T13:14:31.051Z,28.90
2022-08-23T13:17:13.323Z,28.90
2022-08-23T13:19:41.958Z,28.90
2022-08-23T13:22:15.313Z,28.90
2022-08-23T13:24:44.996Z,28.80
2022-08-23T13:27:16.261Z,28.80
2022-08-23T13:29:55.362Z,28.90
2022-08-23T13:32:41.714Z,28.80
2022-08-23T13:35:27.346Z,28.80
2022-08-23T13:37:57.081Z,28.80
2022-08-23T13:40:31.431Z,28.80
2022-08-23T13:43:02.701Z,28.80
2022-08-23T13:45:36.295Z,28.80
2022-08-23T13:48:04.773Z,28.80
2022-08-23T13:50:34.752Z,28.80
2022-08-23T13:53:14.359Z,28.80
2022-08-23T13:55:45.596Z,28.80
2022-08-23T13:58:15.549Z,28.80
2022-08-23T14:00:45.866Z,28.70
2022-08-23T14:03:24.877Z,28.70
2022-08-23T14:05:54.073Z,28.70
2022-08-23T14:08:22.815Z,28.70
2022-08-23T14:10:51.707Z,28.70
2022-08-23T14:13:20.617Z,28.80
2022-08-23T14:15:58.487Z,28.80
2022-08-23T14:18:27.690Z,28.80
2022-08-23T14:20:57.513Z,28.80
2022-08-23T14:23:26.837Z,28.80
2022-08-23T14:25:57.754Z,28.80
2022-08-23T14:28:29.450Z,28.80
2022-08-23T14:30:59.081Z,28.80
2022-08-23T14:33:27.612Z,28.80
2022-08-23T14:35:57.324Z,28.80
2022-08-23T14:38:25.903Z,28.80
2022-08-23T14:40:56.855Z,28.80
2022-08-23T14:43:25.526Z,28.80
2022-08-23T14:45:56.004Z,28.80
2022-08-23T14:48:26.449Z,28.80
2022-08-23T14:50:55.375Z,28.70
2022-08-23T14:53:25.420Z,28.70
2022-08-23T14:56:12.301Z,28.70
2022-08-23T14:58:44.036Z,28.70
2022-08-23T15:01:13.080Z,28.70
2022-08-23T15:03:45.098Z,28.70
2022-08-23T15:06:14.872Z,28.70
2022-08-23T15:08:43.987Z,28.70
2022-08-23T15:14:01.795Z,28.70
2022-08-23T15:16:30.721Z,28.70
2022-08-23T15:18:59.413Z,28.70
2022-08-23T15:21:28.456Z,28.60
2022-08-23T15:23:56.953Z,28.60
2022-08-23T15:26:26.827Z,28.60
2022-08-23T15:28:55.473Z,28.60
2022-08-23T15:31:24.055Z,28.60
2022-08-23T15:33:52.504Z,28.50
2022-08-23T15:36:21.424Z,28.50
2022-08-23T15:38:50.759Z,28.50
2022-08-23T15:41:20.176Z,28.50
2022-08-23T15:43:49.118Z,28.50
2022-08-23T15:46:19.524Z,28.50
2022-08-23T15:48:50.433Z,28.40
2022-08-23T15:51:20.154Z,28.50
2022-08-23T15:53:49.029Z,28.40
2022-08-23T15:56:20.590Z,28.40
2022-08-23T15:58:49.257Z,28.40
2022-08-23T16:01:21.746Z,28.40
2022-08-23T16:03:53.140Z,28.40
2022-08-23T16:06:21.824Z,28.40
2022-08-23T16:08:53.553Z,28.40
2022-08-23T16:11:22.647Z,28.40
2022-08-23T16:13:55.279Z,28.40
2022-08-23T16:16:25.908Z,28.40
2022-08-23T16:18:55.205Z,28.40
2022-08-23T16:21:26.287Z,28.40
2022-08-23T16:23:55.649Z,28.40
2022-08-23T16:26:35.377Z,28.40
2022-08-23T16:29:05.848Z,28.30
2022-08-23T16:31:37.441Z,28.40
2022-08-23T16:34:09.544Z,28.40
2022-08-23T16:36:38.264Z,28.40
2022-08-23T16:39:07.327Z,28.40
2022-08-23T16:41:35.900Z,28.30
2022-08-23T16:44:04.917Z,28.40
2022-08-23T16:46:33.481Z,28.30
2022-08-23T16:49:03.585Z,28.30
2022-08-23T16:51:32.068Z,28.30
2022-08-23T16:54:02.483Z,28.30
2022-08-23T16:56:35.162Z,28.30
2022-08-23T16:59:04.932Z,28.30
2022-08-23T17:01:44.177Z,28.30
2022-08-23T17:04:13.696Z,28.30
2022-08-23T17:06:42.349Z,28.30
2022-08-23T17:09:11.421Z,28.30
2022-08-23T17:11:40.912Z,28.30
2022-08-23T17:14:09.833Z,28.20
2022-08-23T17:16:38.402Z,28.20
2022-08-23T17:19:06.898Z,28.20
2022-08-23T17:21:35.376Z,28.20
2022-08-23T17:24:03.948Z,28.20
2022-08-23T17:26:32.695Z,28.10
2022-08-23T17:29:02.000Z,28.20
2022-08-23T17:31:30.555Z,28.20
2022-08-23T17:34:04.245Z,28.20
2022-08-23T17:36:35.121Z,28.20
2022-08-23T17:39:04.956Z,28.20
2022-08-23T17:41:35.281Z,28.20
2022-08-23T17:44:04.901Z,28.20
2022-08-23T17:46:36.317Z,28.20
2022-08-23T17:49:05.337Z,28.20
2022-08-23T17:51:34.187Z,28.20
2022-08-23T17:54:03.360Z,28.10
2022-08-23T17:56:32.256Z,28.20
2022-08-23T17:59:01.301Z,28.10
2022-08-23T18:01:30.146Z,28.10
2022-08-23T18:03:58.839Z,28.10
2022-08-23T18:06:28.449Z,28.10
2022-08-23T18:08:56.901Z,28.10
2022-08-23T18:11:26.561Z,28.10
2022-08-23T18:13:55.031Z,28.10
2022-08-23T18:16:23.735Z,28.10
2022-08-23T18:18:55.141Z,28.10
2022-08-23T18:21:25.626Z,28.10
2022-08-23T18:23:54.215Z,28.10
2022-08-23T18:26:41.117Z,28.10
2022-08-23T18:29:13.170Z,28.10
2022-08-23T18:31:43.222Z,28.10
2022-08-23T18:34:12.533Z,28.10
2022-08-23T18:36:41.041Z,28.10
2022-08-23T18:39:09.664Z,28.10
2022-08-23T18:41:39.401Z,28.10
2022-08-23T18:44:08.428Z,28.10
2022-08-23T18:46:38.220Z,28.10
2022-08-23T18:49:07.450Z,28.10
2022-08-23T18:51:36.004Z,28.10
2022-08-23T18:54:04.607Z,28.10
2022-08-23T18:56:33.590Z,28.00
2022-08-23T18:59:02.567Z,28.00
2022-08-23T19:01:37.619Z,28.00
2022-08-23T19:04:06.791Z,28.00
2022-08-23T19:06:35.621Z,28.00
2022-08-23T19:09:05.310Z,28.00
2022-08-23T19:11:34.549Z,28.00
2022-08-23T19:14:03.219Z,28.00
2022-08-23T19:16:33.152Z,28.00
2022-08-23T19:19:01.892Z,28.00
2022-08-23T19:21:30.420Z,28.00
2022-08-23T19:23:59.211Z,27.90
2022-08-23T19:26:32.737Z,28.00
2022-08-23T19:29:02.471Z,28.00
2022-08-23T19:31:35.282Z,28.00
2022-08-23T19:34:07.179Z,28.00
2022-08-23T19:36:46.294Z,28.00
2022-08-23T19:39:17.133Z,28.00
2022-08-23T19:41:45.925Z,27.90
2022-08-23T19:44:14.661Z,27.90
2022-08-23T19:46:46.850Z,27.90
2022-08-23T19:49:15.831Z,27.90
2022-08-23T19:51:44.950Z,27.90
2022-08-23T19:54:14.706Z,27.80
2022-08-23T19:56:49.636Z,27.80
2022-08-23T19:59:21.325Z,27.80
2022-08-23T20:01:50.806Z,27.90
2022-08-23T20:04:21.633Z,27.80
2022-08-23T20:06:50.273Z,27.80
2022-08-23T20:09:20.044Z,27.80
2022-08-23T20:11:48.568Z,27.80
2022-08-23T20:14:17.053Z,27.80
2022-08-23T20:16:45.733Z,27.80
2022-08-23T20:19:14.377Z,27.80
2022-08-23T20:21:43.504Z,27.80
2022-08-23T20:24:12.909Z,27.80
2022-08-23T20:26:49.787Z,27.80
2022-08-23T20:29:20.721Z,27.80
2022-08-23T20:31:52.164Z,27.70
2022-08-23T20:34:20.756Z,27.70
2022-08-23T20:36:49.628Z,27.70
2022-08-23T20:39:23.225Z,27.70
2022-08-23T20:41:53.160Z,27.70
2022-08-23T20:44:22.174Z,27.70
2022-08-23T20:46:54.688Z,27.70
2022-08-23T20:49:25.860Z,27.70
2022-08-23T20:51:54.359Z,27.60
2022-08-23T20:54:24.077Z,27.60
2022-08-23T20:56:53.109Z,27.60
2022-08-23T20:59:21.837Z,27.60
2022-08-23T21:01:50.525Z,27.60
2022-08-23T21:04:19.495Z,27.60
2022-08-23T21:06:51.049Z,27.60
2022-08-23T21:09:22.557Z,27.60
2022-08-23T21:11:53.253Z,27.60
2022-08-23T21:14:21.936Z,27.60
2022-08-23T21:16:50.589Z,27.60
2022-08-23T21:19:19.941Z,27.60
2022-08-23T21:21:48.672Z,27.60
2022-08-23T21:24:17.189Z,27.60
2022-08-23T21:26:45.723Z,27.50
2022-08-23T21:29:14.283Z,27.50
2022-08-23T21:31:42.852Z,27.50
2022-08-23T21:34:11.409Z,27.50
2022-08-23T21:36:39.949Z,27.50
2022-08-23T21:39:08.476Z,27.50
2022-08-23T21:41:42.119Z,27.50
2022-08-23T21:44:15.152Z,27.50
2022-08-23T21:46:44.326Z,27.50
2022-08-23T21:49:13.180Z,27.50
2022-08-23T21:51:42.093Z,27.50
2022-08-23T21:54:11.830Z,27.50
2022-08-23T21:56:40.948Z,27.50
2022-08-23T21:59:10.531Z,27.50
2022-08-23T22:01:39.429Z,27.40
2022-08-23T22:04:09.225Z,27.40
2022-08-23T22:06:39.073Z,27.40
2022-08-23T22:09:08.777Z,27.40
2022-08-23T22:11:41.665Z,27.40
2022-08-23T22:14:11.213Z,27.40
2022-08-23T22:16:41.957Z,27.40
2022-08-23T22:19:10.536Z,27.40
2022-08-23T22:21:39.272Z,27.40
2022-08-23T22:24:08.773Z,27.40
2022-08-23T22:26:37.289Z,27.40
2022-08-23T22:29:06.562Z,27.30
2022-08-23T22:31:36.772Z,27.30
2022-08-23T22:34:05.348Z,27.30
2022-08-23T22:36:34.318Z,27.30
2022-08-23T22:39:03.512Z,27.30
2022-08-23T22:41:32.249Z,27.30
2022-08-23T22:44:01.680Z,27.30
2022-08-23T22:46:31.928Z,27.30
2022-08-23T22:49:00.629Z,27.30
2022-08-23T22:51:30.967Z,27.30
2022-08-23T22:54:01.524Z,27.30
2022-08-23T22:56:31.404Z,27.30
2022-08-23T22:59:00.312Z,27.30
2022-08-23T23:01:35.507Z,27.30
2022-08-23T23:04:04.994Z,27.30
2022-08-23T23:06:34.048Z,27.30
2022-08-23T23:09:02.624Z,27.30
2022-08-23T23:11:31.132Z,27.30
2022-08-23T23:13:59.739Z,27.20
2022-08-23T23:16:28.753Z,27.20
2022-08-23T23:19:15.691Z,27.20
2022-08-23T23:21:48.747Z,27.10
2022-08-23T23:24:20.263Z,27.10
2022-08-23T23:26:49.496Z,27.10
2022-08-23T23:29:18.900Z,27.10
2022-08-23T23:31:47.517Z,27.10
2022-08-23T23:34:16.118Z,27.10
2022-08-23T23:36:44.710Z,27.10
2022-08-23T23:39:14.060Z,27.00
2022-08-23T23:41:42.668Z,27.10
2022-08-23T23:44:11.222Z,27.10
2022-08-23T23:46:39.701Z,27.10
2022-08-23T23:49:08.250Z,27.20
2022-08-23T23:51:40.330Z,27.20
2022-08-23T23:54:08.913Z,27.20
2022-08-23T23:56:37.389Z,27.20
2022-08-23T23:59:05.982Z,27.30
